1984 FRAN (1984260N14339)


On this page: IBTrACS data - Map and Plots - Positions - Intensities - Original source data

Summary

Start Sep 15
End Sep 20
Basin NA
LMI 55 kt
Sources hurdat_atl
atcf
In WMO? Yes
Previous storm 1984 NORBERT (EP)
Previous in basin 1984 EDOUARD (NA)
Concurrent storms 1984 DIANA (NA)
1984 KELLY (WP)
1984 EDOUARD (NA)
1984 NORBERT (EP)
1984 FRAN (NA)
1984 GUSTAV (NA)
1984 ODILE (EP)
Next in basin 1984 GUSTAV (NA)
Next storm 1984 GUSTAV (NA)

top of page IBTrACS Data: File Access

top of page HURSAT Data: File Access

Image of storm

top of page Plots:

Map of storm track will not appear if FTP is down
Time series of cyclone Maximum Sustained Wind will not appear if FTP is down
Time series of cyclone Minimum Central Pressure will not appear if FTP is down

top of page Track Data:Position

hurdat_atl atcf
Date Lat Lon Lat Lon
1984-09-15 12:00:00 13.7 -21.3 13.7 -21.3
1984-09-15 18:00:00 13.8 -22.0 13.8 -22.0
1984-09-16 00:00:00 13.9 -22.7 13.9 -22.7
1984-09-16 06:00:00 14.0 -23.4 14.0 -23.4
1984-09-16 12:00:00 14.3 -24.1 14.3 -24.1
1984-09-16 18:00:00 14.8 -24.8 14.8 -24.8
1984-09-17 00:00:00 15.3 -25.3 15.3 -25.3
1984-09-17 06:00:00 16.3 -26.0 16.3 -26.0
1984-09-17 12:00:00 17.3 -26.5 17.3 -26.5
1984-09-17 18:00:00 18.4 -27.1 18.4 -27.1
1984-09-18 00:00:00 19.5 -28.0 19.5 -28.0
1984-09-18 06:00:00 20.2 -29.6 20.2 -29.6
1984-09-18 12:00:00 20.9 -31.0 20.9 -31.0
1984-09-18 18:00:00 21.1 -32.8 21.1 -32.8
1984-09-19 00:00:00 21.1 -34.3 21.1 -34.3
1984-09-19 06:00:00 21.0 -36.0 21.0 -36.0
1984-09-19 12:00:00 20.9 -37.9 20.9 -37.9
1984-09-19 18:00:00 20.8 -39.5 20.8 -39.5
1984-09-20 00:00:00 20.5 -40.7 20.5 -40.7
1984-09-20 06:00:00 20.2 -42.0 20.2 -42.0
1984-09-20 12:00:00 20.0 -43.0 20.0 -43.0

top of pageTrack Data:Intensity

hurdat_atl atcf
Date Wind Pres Wind Pres
1984-09-15 12:00:00 25. 1010. 25. 1010.
1984-09-15 18:00:00 25. 1010. 25. 1010.
1984-09-16 00:00:00 30. 1010. 30. 1010.
1984-09-16 06:00:00 30. 1009. 30. 1009.
1984-09-16 12:00:00 30. 1008. 30. 1008.
1984-09-16 18:00:00 35. 1006. 35. 1006.
1984-09-17 00:00:00 45. 1000. 45. 1000.
1984-09-17 06:00:00 50. 998. 50. 998.
1984-09-17 12:00:00 50. 996. 50. 996.
1984-09-17 18:00:00 55. 995. 55. 995.
1984-09-18 00:00:00 55. 994. 55. 994.
1984-09-18 06:00:00 55. 994. 55. 994.
1984-09-18 12:00:00 55. 994. 55. 994.
1984-09-18 18:00:00 50. 995. 50. 995.
1984-09-19 00:00:00 50. 996. 50. 996.
1984-09-19 06:00:00 50. 1000. 50. 1000.
1984-09-19 12:00:00 45. 1005. 45. 1005.
1984-09-19 18:00:00 40. 1005. 40. 1005.
1984-09-20 00:00:00 35. 1006. 35. 1006.
1984-09-20 06:00:00 30. 1008. 30. 1008.
1984-09-20 12:00:00 25. 1009. 25. 1009.

top of page Links to source data

Source Source file Format
hurdat_atl hurdat2-1851-2015-070616.txt:Line=36374:FRAN HURDAT
atcf bal121984.dat ATCF